createdAt,value
2023-05-05T00:00:29.224Z,32.9
2023-05-05T00:01:31.367Z,32.9
2023-05-05T00:02:33.603Z,32.9
2023-05-05T00:03:36.238Z,32.9
2023-05-05T00:04:38.312Z,32.9
2023-05-05T00:05:40.235Z,32.9
2023-05-05T00:06:42.068Z,32.9
2023-05-05T00:07:43.906Z,32.9
2023-05-05T00:08:45.872Z,32.9
2023-05-05T00:09:47.672Z,32.9
2023-05-05T00:10:49.412Z,32.9
2023-05-05T00:11:51.208Z,32.9
2023-05-05T00:12:53.064Z,32.9
2023-05-05T00:13:55.023Z,32.9
2023-05-05T00:14:56.854Z,33
2023-05-05T00:15:58.710Z,33
2023-05-05T00:17:00.701Z,33
2023-05-05T00:18:02.653Z,33
2023-05-05T00:19:04.771Z,33
2023-05-05T00:20:07.359Z,33
2023-05-05T00:21:09.933Z,33
2023-05-05T00:22:11.847Z,33
2023-05-05T00:23:13.714Z,33
2023-05-05T00:24:15.545Z,33
2023-05-05T00:25:17.397Z,33
2023-05-05T00:26:19.249Z,33
2023-05-05T00:27:21.097Z,33
2023-05-05T00:28:22.904Z,33.1
2023-05-05T00:29:24.700Z,33.1
2023-05-05T00:30:26.557Z,33.1
2023-05-05T00:31:28.513Z,33.1
2023-05-05T00:32:30.594Z,33.1
2023-05-05T00:33:34.964Z,33.1
2023-05-05T00:34:36.710Z,33.1
2023-05-05T00:35:38.366Z,33.1
2023-05-05T00:36:40.359Z,33.1
2023-05-05T00:37:42.179Z,33.1
2023-05-05T00:38:44.122Z,33.1
2023-05-05T00:39:46.077Z,33.1
2023-05-05T00:40:47.834Z,33.1
2023-05-05T00:41:49.573Z,33.1
2023-05-05T00:42:51.509Z,33.2
2023-05-05T00:43:53.373Z,33.2
2023-05-05T00:44:55.209Z,33.2
2023-05-05T00:45:56.879Z,33.2
2023-05-05T00:46:58.930Z,33.2
2023-05-05T00:48:01.179Z,33.2
2023-05-05T00:49:03.568Z,33.2
2023-05-05T00:50:05.747Z,33.2
2023-05-05T00:51:08.385Z,33.2
2023-05-05T00:52:10.473Z,33.2
2023-05-05T00:53:12.260Z,33.2
2023-05-05T00:54:14.391Z,33.2
2023-05-05T00:55:16.183Z,33.2
2023-05-05T00:56:18.233Z,33.2
2023-05-05T00:57:20.479Z,33.2
2023-05-05T00:58:22.439Z,33.2
2023-05-05T00:59:24.282Z,33.2
2023-05-05T01:00:26.866Z,33.2
2023-05-05T01:01:28.837Z,33.2
2023-05-05T01:02:31.316Z,33.2
2023-05-05T01:03:35.138Z,33.2
2023-05-05T01:04:37.232Z,33.2
2023-05-05T01:05:39.086Z,33.2
2023-05-05T01:06:40.941Z,33.2
2023-05-05T01:07:42.990Z,33.2
2023-05-05T01:08:44.730Z,33.2
2023-05-05T01:09:46.683Z,33.2
2023-05-05T01:10:48.537Z,33.3
2023-05-05T01:11:50.296Z,33.3
2023-05-05T01:12:52.234Z,33.3
2023-05-05T01:13:54.288Z,33.3
2023-05-05T01:14:56.148Z,33.3
2023-05-05T01:15:58.115Z,33.3
2023-05-05T01:17:02.930Z,33.3
2023-05-05T01:18:04.788Z,33.3
2023-05-05T01:19:06.708Z,33.3
2023-05-05T01:20:09.031Z,33.2
2023-05-05T01:21:11.770Z,33.2
2023-05-05T01:22:13.625Z,33.2
2023-05-05T01:23:15.572Z,33.2
2023-05-05T01:24:17.425Z,33.2
2023-05-05T01:25:19.246Z,33.2
2023-05-05T01:26:21.091Z,33.2
2023-05-05T01:27:22.863Z,33.2
2023-05-05T01:28:24.704Z,33.2
2023-05-05T01:29:26.552Z,33.2
2023-05-05T01:30:28.416Z,33.2
2023-05-05T01:31:30.279Z,33.2
2023-05-05T01:32:32.315Z,33.2
2023-05-05T01:33:34.141Z,33.2
2023-05-05T01:34:35.996Z,33.3
2023-05-05T01:35:37.947Z,33.2
2023-05-05T01:36:39.823Z,33.2
2023-05-05T01:37:41.455Z,33.2
2023-05-05T01:38:43.319Z,33.2
2023-05-05T01:39:45.152Z,33.2
2023-05-05T01:40:47.007Z,33.2
2023-05-05T01:41:48.955Z,33.2
2023-05-05T01:42:50.809Z,33.2
2023-05-05T01:43:52.647Z,33.2
2023-05-05T01:44:54.512Z,33.2
2023-05-05T01:45:56.455Z,33.2
2023-05-05T01:46:58.522Z,33.2
2023-05-05T01:48:00.494Z,33.2
2023-05-05T01:49:02.418Z,33.2
2023-05-05T01:50:04.268Z,33.1
2023-05-05T01:51:06.211Z,33.1
2023-05-05T01:52:08.276Z,33.1
2023-05-05T01:53:10.017Z,33.2
2023-05-05T01:54:11.997Z,33.2
2023-05-05T01:55:13.921Z,33.1
2023-05-05T01:56:15.784Z,33.1
2023-05-05T01:57:17.543Z,33.1
2023-05-05T01:58:19.272Z,33.1
2023-05-05T01:59:21.112Z,33.1
2023-05-05T02:00:22.906Z,33.2
2023-05-05T02:01:24.755Z,33.1
2023-05-05T02:02:26.921Z,33.1
2023-05-05T02:03:29.055Z,33.1
2023-05-05T02:04:31.092Z,33.1
2023-05-05T02:05:33.039Z,33.1
2023-05-05T02:06:34.890Z,33.1
2023-05-05T02:07:36.737Z,33.1
2023-05-05T02:08:38.594Z,33.1
2023-05-05T02:09:40.450Z,33.1
2023-05-05T02:10:42.281Z,33.1
2023-05-05T02:11:44.125Z,33.1
2023-05-05T02:12:46.001Z,33.1
2023-05-05T02:13:47.957Z,33.1
2023-05-05T02:14:50.061Z,33.1
2023-05-05T02:15:52.111Z,33.1
2023-05-05T02:16:54.217Z,33.1
2023-05-05T02:17:56.185Z,33.1
2023-05-05T02:18:58.104Z,33.1
2023-05-05T02:19:59.851Z,33.1
2023-05-05T02:21:01.702Z,33.1
2023-05-05T02:22:03.659Z,33.1
2023-05-05T02:23:05.293Z,33.1
2023-05-05T02:24:07.889Z,33.1
2023-05-05T02:25:09.764Z,33.1
2023-05-05T02:26:11.565Z,33.1
2023-05-05T02:27:13.403Z,33
2023-05-05T02:28:15.275Z,33
2023-05-05T02:29:17.117Z,33
2023-05-05T02:30:18.891Z,33
2023-05-05T02:31:20.834Z,33.1
2023-05-05T02:32:22.936Z,33
2023-05-05T02:33:24.927Z,33.1
2023-05-05T02:34:26.772Z,33.1
2023-05-05T02:35:28.638Z,33.1
2023-05-05T02:36:30.466Z,33.1
2023-05-05T02:37:32.334Z,33.1
2023-05-05T02:38:34.174Z,33.1
2023-05-05T02:39:36.136Z,33.1
2023-05-05T02:40:37.783Z,33.1
2023-05-05T02:41:39.647Z,33.1
2023-05-05T02:42:41.491Z,33.1
2023-05-05T02:43:43.635Z,33.1
2023-05-05T02:44:45.479Z,33.2
2023-05-05T02:45:47.467Z,33.2
2023-05-05T02:46:49.454Z,33.2
2023-05-05T02:47:51.495Z,33.2
2023-05-05T02:48:53.416Z,33.2
2023-05-05T02:49:55.251Z,33.2
2023-05-05T02:50:57.205Z,33.2
2023-05-05T02:51:59.058Z,33.2
2023-05-05T02:53:00.898Z,33.2
2023-05-05T02:54:02.766Z,33.2
2023-05-05T02:55:04.714Z,33.2
2023-05-05T02:56:06.690Z,33.2
2023-05-05T02:57:08.405Z,33.2
2023-05-05T02:58:10.246Z,33.2
2023-05-05T02:59:16.054Z,33.3
2023-05-05T03:00:18.350Z,33.3
2023-05-05T03:01:20.426Z,33.2
2023-05-05T03:02:22.470Z,33.3
2023-05-05T03:03:24.682Z,33.3
2023-05-05T03:04:26.783Z,33.3
2023-05-05T03:05:28.636Z,33.3
2023-05-05T03:06:30.454Z,33.4
2023-05-05T03:07:32.430Z,33.4
2023-05-05T03:08:35.606Z,33.3
2023-05-05T03:09:37.468Z,33.4
2023-05-05T03:10:39.307Z,33.4
2023-05-05T03:11:41.190Z,33.4
2023-05-05T03:12:43.172Z,33.4
2023-05-05T03:13:45.164Z,33.4
2023-05-05T03:14:46.921Z,33.4
2023-05-05T03:15:48.666Z,33.4
2023-05-05T03:16:50.524Z,33.4
2023-05-05T03:17:52.483Z,33.4
2023-05-05T03:18:54.422Z,33.4
2023-05-05T03:19:56.274Z,33.4
2023-05-05T03:20:58.088Z,33.4
2023-05-05T03:21:59.851Z,33.4
2023-05-05T03:23:01.717Z,33.4
2023-05-05T03:24:03.873Z,33.4
2023-05-05T03:25:05.733Z,33.4
2023-05-05T03:26:07.472Z,33.4
2023-05-05T03:27:09.348Z,33.4
2023-05-05T03:28:11.200Z,33.4
2023-05-05T03:29:13.172Z,33.4
2023-05-05T03:30:14.961Z,33.4
2023-05-05T03:31:16.848Z,33.4
2023-05-05T03:32:18.872Z,33.4
2023-05-05T03:33:20.721Z,33.4
2023-05-05T03:34:22.677Z,33.4
2023-05-05T03:35:24.624Z,33.4
2023-05-05T03:36:29.619Z,33.4
2023-05-05T03:37:31.507Z,33.4
2023-05-05T03:38:33.452Z,33.4
2023-05-05T03:39:35.305Z,33.3
2023-05-05T03:40:44.983Z,33.3
2023-05-05T03:41:46.885Z,33.3
2023-05-05T03:42:48.766Z,33.3
2023-05-05T03:43:50.599Z,33.3
2023-05-05T03:44:52.444Z,33.3
2023-05-05T03:45:54.416Z,33.3
2023-05-05T03:46:56.430Z,33.3
2023-05-05T03:47:58.443Z,33.2
2023-05-05T03:49:00.347Z,33.3
2023-05-05T03:50:02.120Z,33.3
2023-05-05T03:51:04.074Z,33.3
2023-05-05T03:52:05.910Z,33.3
2023-05-05T03:53:07.793Z,33.2
2023-05-05T03:54:09.607Z,33.3
2023-05-05T03:55:11.448Z,33.3
2023-05-05T03:56:13.418Z,33.3
2023-05-05T03:57:15.260Z,33.3
2023-05-05T03:58:17.262Z,33.3
2023-05-05T03:59:19.170Z,33.3
2023-05-05T04:00:21.017Z,33.2
2023-05-05T04:01:22.938Z,33.2
2023-05-05T04:02:24.952Z,33.2
2023-05-05T04:03:27.410Z,33.1
2023-05-05T04:04:29.737Z,33.1
2023-05-05T04:05:31.697Z,33
2023-05-05T04:06:33.656Z,33
2023-05-05T04:07:35.500Z,33
2023-05-05T04:08:37.343Z,33
2023-05-05T04:09:39.295Z,33.1
2023-05-05T04:10:41.300Z,33.1
2023-05-05T04:11:43.424Z,33.1
2023-05-05T04:12:45.306Z,33.1
2023-05-05T04:13:47.306Z,33.2
2023-05-05T04:14:49.376Z,33.3
2023-05-05T04:15:51.522Z,33.2
2023-05-05T04:16:53.493Z,33.2
2023-05-05T04:17:55.531Z,33.1
2023-05-05T04:18:57.678Z,33.2
2023-05-05T04:19:59.573Z,33.1
2023-05-05T04:21:01.420Z,33.1
2023-05-05T04:22:03.244Z,33.1
2023-05-05T04:23:04.988Z,32.9
2023-05-05T04:24:06.775Z,32.9
2023-05-05T04:25:08.788Z,32.9
2023-05-05T04:26:10.650Z,32.7
2023-05-05T04:27:12.409Z,32.6
2023-05-05T04:28:14.355Z,32.6
2023-05-05T04:29:16.234Z,32.5
2023-05-05T04:30:18.055Z,32.5
2023-05-05T04:31:20.005Z,32.7
2023-05-05T04:32:22.186Z,32.7
2023-05-05T04:33:24.216Z,32.7
2023-05-05T04:34:26.088Z,32.7
2023-05-05T04:35:27.814Z,32.7
2023-05-05T04:36:30.056Z,32.7
2023-05-05T04:37:31.912Z,32.6
2023-05-05T04:38:33.876Z,32.6
2023-05-05T04:39:36.037Z,32.5
2023-05-05T04:40:37.753Z,32.5
2023-05-05T04:41:39.436Z,32.5
2023-05-05T04:42:41.392Z,32.5
2023-05-05T04:43:43.243Z,32.4
2023-05-05T04:44:47.955Z,32.4
2023-05-05T04:45:49.804Z,32.4
2023-05-05T04:46:51.807Z,32.5
2023-05-05T04:47:53.970Z,32.3
2023-05-05T04:48:55.982Z,32.2
2023-05-05T04:49:57.926Z,32.2
2023-05-05T04:50:59.773Z,32
2023-05-05T04:52:01.597Z,31.9
2023-05-05T04:53:03.355Z,31.9
2023-05-05T04:54:05.302Z,31.9
2023-05-05T04:55:07.160Z,31.9
2023-05-05T04:56:08.910Z,31.9
2023-05-05T04:57:10.754Z,31.9
2023-05-05T04:58:13.100Z,32
2023-05-05T04:59:15.092Z,32.1
2023-05-05T05:00:17.144Z,32
2023-05-05T05:01:19.083Z,31.9
2023-05-05T05:02:21.308Z,31.9
2023-05-05T05:03:23.921Z,32
2023-05-05T05:04:26.257Z,31.9
2023-05-05T05:05:28.117Z,31.9
2023-05-05T05:06:29.972Z,31.9
2023-05-05T05:07:31.920Z,31.8
2023-05-05T05:08:33.881Z,31.7
2023-05-05T05:09:35.670Z,31.8
2023-05-05T05:10:37.561Z,31.9
2023-05-05T05:11:39.411Z,32.2
2023-05-05T05:12:41.917Z,32.1
2023-05-05T05:13:43.904Z,32.2
2023-05-05T05:14:45.725Z,32.1
2023-05-05T05:15:47.565Z,32.1
2023-05-05T05:16:49.691Z,32
2023-05-05T05:17:52.075Z,31.8
2023-05-05T05:18:54.205Z,31.7
2023-05-05T05:19:56.570Z,31.6
2023-05-05T05:20:58.407Z,31.7
2023-05-05T05:22:00.901Z,31.2
2023-05-05T05:23:02.729Z,30.9
2023-05-05T05:24:04.489Z,31.3
2023-05-05T05:25:06.816Z,31.6
2023-05-05T05:26:08.493Z,31.8
2023-05-05T05:27:10.773Z,31.8
2023-05-05T05:28:12.607Z,31.9
2023-05-05T05:29:14.454Z,31.8
2023-05-05T05:30:16.310Z,31.7
2023-05-05T05:31:18.277Z,31.6
2023-05-05T05:32:20.311Z,31.6
2023-05-05T05:33:22.157Z,31.5
2023-05-05T05:34:23.943Z,31.4
2023-05-05T05:35:25.646Z,31.4
2023-05-05T05:36:27.401Z,31.5
2023-05-05T05:37:29.258Z,31.5
2023-05-05T05:38:31.091Z,31.5
2023-05-05T05:39:32.963Z,31.4
2023-05-05T05:40:34.791Z,31.3
2023-05-05T05:41:36.753Z,31.4
2023-05-05T05:42:38.698Z,31.3
2023-05-05T05:43:40.558Z,31.4
2023-05-05T05:44:42.394Z,31.5
2023-05-05T05:45:44.384Z,31.2
2023-05-05T05:46:46.486Z,31.1
2023-05-05T05:47:48.461Z,31.1
2023-05-05T05:48:51.013Z,31.1
2023-05-05T05:49:53.076Z,31.1
2023-05-05T05:50:54.901Z,31
2023-05-05T05:51:56.791Z,30.9
2023-05-05T05:52:58.608Z,31.1
2023-05-05T05:54:00.583Z,31
2023-05-05T05:55:02.400Z,31
2023-05-05T05:56:04.175Z,31.2
2023-05-05T05:57:05.994Z,31.1
2023-05-05T05:58:07.741Z,31
2023-05-05T05:59:09.524Z,31
2023-05-05T06:00:11.675Z,30.8
2023-05-05T06:01:13.483Z,31
2023-05-05T06:02:15.279Z,30.9
2023-05-05T06:03:17.428Z,31
2023-05-05T06:04:19.954Z,30.8
2023-05-05T06:05:21.749Z,30.8
2023-05-05T06:06:23.599Z,30.7
2023-05-05T06:07:25.442Z,30.7
2023-05-05T06:08:27.194Z,30.8
2023-05-05T06:09:28.947Z,30.8
2023-05-05T06:10:31.272Z,30.6
2023-05-05T06:11:33.979Z,30.6
2023-05-05T06:12:36.055Z,30.3
2023-05-05T06:13:37.874Z,30.4
2023-05-05T06:14:39.842Z,30.4
2023-05-05T06:15:41.895Z,30.4
2023-05-05T06:16:43.833Z,30.3
2023-05-05T06:17:45.834Z,30.3
2023-05-05T06:18:47.976Z,30.2
2023-05-05T06:19:49.996Z,30.2
2023-05-05T06:20:51.879Z,30.3
2023-05-05T06:21:54.204Z,30.2
2023-05-05T06:22:56.162Z,30.1
2023-05-05T06:23:58.009Z,30.2
2023-05-05T06:25:00.183Z,30.3
2023-05-05T06:26:01.979Z,30.4
2023-05-05T06:27:03.811Z,30.5
2023-05-05T06:28:07.786Z,30.4
2023-05-05T06:29:12.558Z,30.2
2023-05-05T06:30:14.572Z,30.1
2023-05-05T06:31:16.304Z,29.9
2023-05-05T06:32:18.042Z,29.9
2023-05-05T06:33:19.883Z,29.7
2023-05-05T06:34:21.831Z,29.6
2023-05-05T06:35:23.592Z,29.6
2023-05-05T06:36:25.582Z,29.5
2023-05-05T06:37:27.531Z,29.7
2023-05-05T06:38:29.191Z,29.9
2023-05-05T06:39:31.161Z,29.7
2023-05-05T06:40:33.047Z,29.4
2023-05-05T06:41:35.293Z,29.2
2023-05-05T06:42:37.349Z,29.2
2023-05-05T06:43:39.090Z,29.4
2023-05-05T06:44:40.843Z,29.7
2023-05-05T06:45:44.090Z,29.4
2023-05-05T06:46:45.998Z,29.4
2023-05-05T06:47:48.100Z,29.2
2023-05-05T06:48:50.204Z,29.3
2023-05-05T06:49:52.151Z,29.3
2023-05-05T06:50:53.813Z,29.1
2023-05-05T06:51:55.612Z,29
2023-05-05T06:52:57.565Z,29
2023-05-05T06:53:59.454Z,29.2
2023-05-05T06:55:01.541Z,29.1
2023-05-05T06:56:03.348Z,29
2023-05-05T06:57:05.515Z,29.1
2023-05-05T06:58:07.258Z,29
2023-05-05T06:59:09.029Z,29.4
2023-05-05T07:00:11.088Z,29.1
2023-05-05T07:01:13.355Z,28.8
2023-05-05T07:02:15.374Z,28.6
2023-05-05T07:03:17.279Z,28.5
2023-05-05T07:04:19.861Z,28.4
2023-05-05T07:05:21.642Z,28.3
2023-05-05T07:06:23.495Z,28.2
2023-05-05T07:07:25.280Z,28.1
2023-05-05T07:08:27.088Z,28.1
2023-05-05T07:09:29.068Z,28
2023-05-05T07:10:31.235Z,28
2023-05-05T07:11:33.366Z,28
2023-05-05T07:12:35.312Z,27.8
2023-05-05T07:13:37.159Z,28.1
2023-05-05T07:14:38.920Z,28
2023-05-05T07:15:40.863Z,28.4
2023-05-05T07:16:45.722Z,28.2
2023-05-05T07:17:48.005Z,28.2
2023-05-05T07:18:49.972Z,28.2
2023-05-05T07:19:52.045Z,28.1
2023-05-05T07:20:53.765Z,28
2023-05-05T07:21:55.956Z,28
2023-05-05T07:22:57.786Z,28
2023-05-05T07:23:59.660Z,27.9
2023-05-05T07:25:01.608Z,28
2023-05-05T07:26:03.450Z,27.9
2023-05-05T07:27:05.409Z,27.9
2023-05-05T07:28:07.265Z,27.9
2023-05-05T07:29:09.062Z,27.8
2023-05-05T07:30:16.502Z,27.8
2023-05-05T07:31:21.301Z,27.8
2023-05-05T07:32:26.116Z,27.7
2023-05-05T07:33:28.029Z,27.7
2023-05-05T07:34:29.624Z,27.6
2023-05-05T07:35:31.836Z,27.6
2023-05-05T07:36:33.640Z,27.7
2023-05-05T07:37:35.375Z,27.8
2023-05-05T07:38:37.125Z,27.8
2023-05-05T07:39:38.874Z,27.7
2023-05-05T07:40:40.610Z,27.7
2023-05-05T07:41:42.434Z,27.6
2023-05-05T07:42:44.316Z,27.6
2023-05-05T07:43:46.067Z,27.6
2023-05-05T07:44:47.909Z,27.4
2023-05-05T07:45:50.091Z,27.5
2023-05-05T07:46:52.047Z,27.4
2023-05-05T07:47:54.209Z,27.4
2023-05-05T07:48:56.344Z,27.4
2023-05-05T07:49:58.183Z,27.4
2023-05-05T07:51:00.664Z,27.3
2023-05-05T07:52:02.518Z,27.2
2023-05-05T07:53:15.016Z,27.2
2023-05-05T07:54:17.160Z,27.2
2023-05-05T07:55:19.418Z,27.1
2023-05-05T07:56:22.192Z,27.2
2023-05-05T07:57:24.031Z,27.1
2023-05-05T07:58:25.738Z,27.1
2023-05-05T07:59:30.442Z,27.1
2023-05-05T08:00:32.358Z,27.1
2023-05-05T08:01:34.084Z,27.2
2023-05-05T08:02:36.001Z,27
2023-05-05T08:03:38.840Z,27.4
2023-05-05T08:04:41.415Z,27.4
2023-05-05T08:05:43.881Z,27.3
2023-05-05T08:06:45.938Z,27.4
2023-05-05T08:07:47.665Z,27.6
2023-05-05T08:08:49.608Z,27.4
2023-05-05T08:09:51.463Z,27.4
2023-05-05T08:10:53.727Z,27.4
2023-05-05T08:11:55.482Z,27.3
2023-05-05T08:12:57.496Z,27.2
2023-05-05T08:13:59.546Z,27
2023-05-05T08:15:01.319Z,27.1
2023-05-05T08:16:03.115Z,27.3
2023-05-05T08:17:05.031Z,27.2
2023-05-05T08:18:07.031Z,27.3
2023-05-05T08:19:28.489Z,26.8
2023-05-05T08:20:31.578Z,27.1
2023-05-05T08:21:33.626Z,27.1
2023-05-05T08:22:35.749Z,27
2023-05-05T08:23:37.648Z,26.9
2023-05-05T08:24:39.582Z,26.8
2023-05-05T08:25:41.430Z,26.8
2023-05-05T08:26:44.176Z,26.6
2023-05-05T08:27:45.850Z,26.5
2023-05-05T08:28:47.640Z,26.5
2023-05-05T08:29:49.230Z,26.6
2023-05-05T08:30:51.110Z,26.7
2023-05-05T08:31:53.090Z,26.9
2023-05-05T08:32:55.373Z,26.8
2023-05-05T08:33:57.598Z,26.7
2023-05-05T08:34:59.610Z,26.7
2023-05-05T08:36:01.605Z,26.7
2023-05-05T08:37:03.334Z,26.8
2023-05-05T08:38:05.378Z,26.5
2023-05-05T08:39:07.728Z,26.6
2023-05-05T08:40:09.579Z,26.6
2023-05-05T08:41:11.337Z,26.6
2023-05-05T08:42:29.247Z,26.4
2023-05-05T08:43:41.247Z,26.3
2023-05-05T08:44:42.981Z,26.2
2023-05-05T08:45:44.877Z,26.4
2023-05-05T08:46:46.664Z,26.4
2023-05-05T08:47:48.878Z,26.5
2023-05-05T08:48:51.028Z,26.6
2023-05-05T08:49:52.875Z,26.4
2023-05-05T08:50:57.347Z,26.5
2023-05-05T08:52:04.754Z,26.3
2023-05-05T08:53:06.874Z,26.4
2023-05-05T08:54:08.927Z,26.2
2023-05-05T08:55:10.722Z,26
2023-05-05T08:56:12.564Z,26
2023-05-05T08:57:14.389Z,26
2023-05-05T08:58:16.229Z,26.7
2023-05-05T08:59:17.906Z,26.3
2023-05-05T09:00:19.658Z,26.4
2023-05-05T09:01:21.665Z,26.4
2023-05-05T09:02:23.802Z,26.5
2023-05-05T09:03:26.686Z,26.5
2023-05-05T09:04:28.601Z,26.5
2023-05-05T09:05:31.166Z,26.4
2023-05-05T09:06:33.000Z,26.1
2023-05-05T09:07:35.060Z,26.5
2023-05-05T09:08:36.906Z,26.4
2023-05-05T09:09:38.864Z,26.3
2023-05-05T09:10:40.814Z,26.3
2023-05-05T09:11:42.766Z,26.3
2023-05-05T09:12:44.623Z,26.3
2023-05-05T09:13:47.488Z,26.2
2023-05-05T09:14:49.343Z,26
2023-05-05T09:15:51.295Z,26
2023-05-05T09:16:53.160Z,25.9
2023-05-05T09:17:55.205Z,26.1
2023-05-05T09:18:57.141Z,26
2023-05-05T09:19:59.112Z,26.3
2023-05-05T09:21:00.954Z,26.3
2023-05-05T09:22:02.776Z,26.3
2023-05-05T09:23:04.555Z,26.5
2023-05-05T09:24:09.366Z,26.5
2023-05-05T09:25:11.637Z,26.6
2023-05-05T09:26:13.791Z,26.6
2023-05-05T09:27:15.748Z,26.5
2023-05-05T09:28:17.600Z,26.3
2023-05-05T09:29:19.258Z,26
2023-05-05T09:30:21.387Z,26.1
2023-05-05T09:31:23.266Z,26.3
2023-05-05T09:32:25.318Z,26.4
2023-05-05T09:33:27.248Z,26.4
2023-05-05T09:34:29.066Z,26.3
2023-05-05T09:35:30.945Z,26
2023-05-05T09:36:32.810Z,26
2023-05-05T09:37:34.865Z,26.3
2023-05-05T09:38:36.872Z,26.2
2023-05-05T09:39:38.762Z,26.1
2023-05-05T09:40:40.681Z,26
2023-05-05T09:41:42.570Z,25.9
2023-05-05T09:42:44.436Z,26
2023-05-05T09:43:46.786Z,26.4
2023-05-05T09:44:48.529Z,26.5
2023-05-05T09:45:50.277Z,26.3
2023-05-05T09:46:52.278Z,26.2
2023-05-05T09:48:00.673Z,26.2
2023-05-05T09:49:02.894Z,26.2
2023-05-05T09:50:04.741Z,26.1
2023-05-05T09:51:06.684Z,26.2
2023-05-05T09:52:08.434Z,26.1
2023-05-05T09:53:10.444Z,26.1
2023-05-05T09:54:12.310Z,26
2023-05-05T09:55:14.391Z,26
2023-05-05T09:56:16.450Z,26
2023-05-05T09:57:18.383Z,26
2023-05-05T09:58:20.497Z,26.1
2023-05-05T09:59:22.510Z,26
2023-05-05T10:00:24.380Z,25.9
2023-05-05T10:01:26.210Z,25.9
2023-05-05T10:02:29.198Z,26
2023-05-05T10:03:31.007Z,25.8
2023-05-05T10:04:33.006Z,25.8
2023-05-05T10:05:34.856Z,25.8
2023-05-05T10:06:36.694Z,25.8
2023-05-05T10:07:38.447Z,25.9
2023-05-05T10:08:40.238Z,25.8
2023-05-05T10:09:42.036Z,25.7
2023-05-05T10:10:44.113Z,25.7
2023-05-05T10:11:45.868Z,25.9
2023-05-05T10:12:47.735Z,26
2023-05-05T10:13:49.639Z,26
2023-05-05T10:14:51.473Z,26
2023-05-05T10:15:53.460Z,25.8
2023-05-05T10:16:55.398Z,25.8
2023-05-05T10:18:08.522Z,25.9
2023-05-05T10:19:10.660Z,25.8
2023-05-05T10:20:12.507Z,25.8
2023-05-05T10:21:14.577Z,25.8
2023-05-05T10:22:16.423Z,25.9
2023-05-05T10:23:18.286Z,25.9
2023-05-05T10:24:20.317Z,25.8
2023-05-05T10:25:22.274Z,26.5
2023-05-05T10:26:24.225Z,26.7
2023-05-05T10:27:26.186Z,26.7
2023-05-05T10:28:28.037Z,26.4
2023-05-05T10:29:30.197Z,26.7
2023-05-05T10:30:31.942Z,26.4
2023-05-05T10:31:33.911Z,26.4
2023-05-05T10:33:08.247Z,26.4
2023-05-05T10:34:34.044Z,26.2
2023-05-05T10:35:36.184Z,26.1
2023-05-05T10:36:38.026Z,26.4
2023-05-05T10:37:40.056Z,26.3
2023-05-05T10:38:41.950Z,26.2
2023-05-05T10:39:44.091Z,26.1
2023-05-05T10:40:45.929Z,26.5
2023-05-05T10:41:47.890Z,26.4
2023-05-05T10:42:49.980Z,26.3
2023-05-05T10:43:51.794Z,26.2
2023-05-05T10:44:53.754Z,26.2
2023-05-05T10:45:55.974Z,26.2
2023-05-05T10:46:58.068Z,26.2
2023-05-05T10:48:00.037Z,26.2
2023-05-05T10:49:02.063Z,26.2
2023-05-05T10:50:03.874Z,26.2
2023-05-05T10:51:05.871Z,26.2
2023-05-05T10:52:07.722Z,26.2
2023-05-05T10:53:09.635Z,26.2
2023-05-05T10:54:11.686Z,26.3
2023-05-05T10:55:13.783Z,26.2
2023-05-05T10:56:15.645Z,26.3
2023-05-05T10:57:17.529Z,26.3
2023-05-05T10:58:19.358Z,26.3
2023-05-05T10:59:21.186Z,26.5
2023-05-05T11:00:23.028Z,26.7
2023-05-05T11:01:25.011Z,26.7
2023-05-05T11:02:27.258Z,26.7
2023-05-05T11:03:29.821Z,26.5
2023-05-05T11:04:31.757Z,26.6
2023-05-05T11:05:33.615Z,26.5
2023-05-05T11:06:35.577Z,26.4
2023-05-05T11:07:37.428Z,26.5
2023-05-05T11:08:39.263Z,26.5
2023-05-05T11:09:41.012Z,26.4
2023-05-05T11:10:42.964Z,26.3
2023-05-05T11:11:44.912Z,26.4
2023-05-05T11:12:46.932Z,26.5
2023-05-05T11:13:48.993Z,26.7
2023-05-05T11:14:50.880Z,26.8
2023-05-05T11:15:53.140Z,26.8
2023-05-05T11:16:54.902Z,26.7
2023-05-05T11:17:57.021Z,26.6
2023-05-05T11:18:59.091Z,26.5
2023-05-05T11:20:00.746Z,26.5
2023-05-05T11:21:02.689Z,26.6
2023-05-05T11:22:04.618Z,26.6
2023-05-05T11:23:06.498Z,26.8
2023-05-05T11:24:08.552Z,26.9
2023-05-05T11:25:10.401Z,26.7
2023-05-05T11:26:12.352Z,26.6
2023-05-05T11:27:14.397Z,26.4
2023-05-05T11:28:16.162Z,26.4
2023-05-05T11:29:18.210Z,26.4
2023-05-05T11:30:20.168Z,26.4
2023-05-05T11:31:22.239Z,26.6
2023-05-05T11:32:24.293Z,26.5
2023-05-05T11:33:26.230Z,26.5
2023-05-05T11:34:28.002Z,26.4
2023-05-05T11:35:29.932Z,26.6
2023-05-05T11:36:31.770Z,26.9
2023-05-05T11:37:33.515Z,26.8
2023-05-05T11:38:35.279Z,26.9
2023-05-05T11:39:37.125Z,26.9
2023-05-05T11:40:38.951Z,27.2
2023-05-05T11:41:40.932Z,27.2
2023-05-05T11:42:42.687Z,27.2
2023-05-05T11:43:44.632Z,27
2023-05-05T11:44:46.626Z,26.9
2023-05-05T11:45:48.485Z,26.8
2023-05-05T11:46:50.488Z,26.7
2023-05-05T11:47:52.460Z,26.6
2023-05-05T11:48:54.524Z,26.6
2023-05-05T11:49:56.227Z,26.6
2023-05-05T11:50:57.981Z,26.6
2023-05-05T11:51:59.826Z,26.6
2023-05-05T11:53:01.690Z,26.6
2023-05-05T11:54:03.439Z,26.6
2023-05-05T11:55:05.248Z,26.5
2023-05-05T11:56:07.142Z,26.6
2023-05-05T11:57:09.222Z,26.6
2023-05-05T11:58:11.238Z,26.6
2023-05-05T11:59:13.198Z,26.6
2023-05-05T12:00:15.146Z,26.6
2023-05-05T12:01:16.988Z,26.5
2023-05-05T12:02:18.962Z,26.5
2023-05-05T12:03:21.217Z,26.4
2023-05-05T12:04:23.330Z,26.4
2023-05-05T12:05:25.207Z,26.5
2023-05-05T12:06:26.972Z,26.5
2023-05-05T12:07:28.809Z,26.5
2023-05-05T12:08:30.653Z,26.6
2023-05-05T12:09:32.507Z,26.6
2023-05-05T12:10:34.265Z,26.6
2023-05-05T12:11:38.670Z,26.5
2023-05-05T12:12:40.786Z,26.6
2023-05-05T12:13:43.086Z,26.6
2023-05-05T12:14:45.009Z,26.5
2023-05-05T12:15:47.157Z,26.5
2023-05-05T12:16:49.056Z,26.4
2023-05-05T12:17:51.063Z,26.4
2023-05-05T12:18:53.057Z,26.4
2023-05-05T12:19:54.709Z,26.5
2023-05-05T12:20:56.446Z,26.5
2023-05-05T12:21:58.197Z,26.4
2023-05-05T12:22:59.947Z,26.4
2023-05-05T12:24:01.807Z,26.5
2023-05-05T12:25:03.662Z,26.5
2023-05-05T12:26:05.497Z,26.5
2023-05-05T12:27:07.342Z,26.5
2023-05-05T12:28:09.307Z,26.5
2023-05-05T12:29:11.462Z,26.5
2023-05-05T12:30:13.417Z,26.5
2023-05-05T12:31:15.643Z,26.5
2023-05-05T12:32:17.551Z,26.6
2023-05-05T12:33:19.379Z,26.5
2023-05-05T12:34:21.011Z,26.5
2023-05-05T12:35:22.766Z,26.5
2023-05-05T12:36:24.607Z,26.5
2023-05-05T12:37:26.494Z,26.6
2023-05-05T12:38:28.518Z,26.6
2023-05-05T12:39:30.669Z,26.5
2023-05-05T12:40:32.520Z,26.5
2023-05-05T12:41:34.403Z,26.5
2023-05-05T12:42:36.428Z,26.6
2023-05-05T12:43:38.583Z,26.5
2023-05-05T12:44:40.556Z,26.5
2023-05-05T12:45:42.534Z,26.6
2023-05-05T12:46:44.585Z,26.6
2023-05-05T12:47:46.539Z,26.6
2023-05-05T12:48:48.856Z,26.6
2023-05-05T12:49:50.714Z,26.6
2023-05-05T12:50:52.563Z,26.5
2023-05-05T12:51:54.628Z,26.6
2023-05-05T12:52:56.597Z,26.6
2023-05-05T12:53:58.391Z,26.6
2023-05-05T12:55:00.070Z,26.6
2023-05-05T12:56:01.924Z,26.6
2023-05-05T12:57:03.786Z,26.6
2023-05-05T12:58:05.618Z,26.6
2023-05-05T12:59:07.490Z,26.6
2023-05-05T13:00:10.232Z,26.5
2023-05-05T13:01:12.697Z,26.5
2023-05-05T13:02:14.863Z,26.4
2023-05-05T13:03:16.950Z,26.4
2023-05-05T13:04:19.284Z,26.4
2023-05-05T13:05:21.124Z,26.4
2023-05-05T13:06:22.950Z,26.5
2023-05-05T13:07:24.802Z,26.6
2023-05-05T13:08:26.572Z,26.5
2023-05-05T13:09:28.429Z,26.6
2023-05-05T13:10:30.178Z,26.5
2023-05-05T13:11:32.140Z,26.4
2023-05-05T13:12:34.093Z,26.4
2023-05-05T13:13:36.023Z,26.6
2023-05-05T13:14:37.888Z,26.6
2023-05-05T13:15:39.721Z,26.5
2023-05-05T13:16:41.788Z,26.4
2023-05-05T13:17:43.755Z,26.4
2023-05-05T13:18:45.813Z,26.3
2023-05-05T13:19:47.792Z,26.3
2023-05-05T13:20:50.423Z,26.4
2023-05-05T13:21:52.272Z,26.5
2023-05-05T13:22:54.168Z,26.5
2023-05-05T13:24:23.288Z,26.5
2023-05-05T13:25:39.913Z,26.5
2023-05-05T13:26:41.751Z,26.4
2023-05-05T13:27:43.773Z,26.4
2023-05-05T13:28:45.766Z,26.4
2023-05-05T13:29:47.709Z,26.4
2023-05-05T13:30:49.682Z,26.4
2023-05-05T13:31:51.743Z,26.5
2023-05-05T13:32:53.886Z,26.5
2023-05-05T13:33:55.662Z,26.6
2023-05-05T13:34:57.372Z,26.6
2023-05-05T13:35:59.127Z,26.5
2023-05-05T13:37:01.163Z,26.6
2023-05-05T13:38:03.039Z,26.6
2023-05-05T13:39:04.865Z,26.5
2023-05-05T13:40:06.709Z,26.4
2023-05-05T13:41:08.538Z,26.4
2023-05-05T13:42:10.495Z,26.4
2023-05-05T13:43:12.244Z,26.4
2023-05-05T13:44:14.010Z,26.4
2023-05-05T13:45:15.964Z,26.4
2023-05-05T13:46:20.682Z,26.4
2023-05-05T13:47:23.012Z,26.4
2023-05-05T13:48:25.446Z,26.5
2023-05-05T13:49:27.471Z,26.4
2023-05-05T13:50:29.304Z,26.4
2023-05-05T13:51:31.263Z,26.4
2023-05-05T13:52:33.842Z,26.4
2023-05-05T13:53:35.967Z,26.4